createdAt,value
2023-07-27T00:00:43.534Z,43.28
2023-07-27T00:02:15.573Z,43.34
2023-07-27T00:03:47.419Z,43.33
2023-07-27T00:05:19.017Z,43.40
2023-07-27T00:06:50.855Z,43.37
2023-07-27T00:08:22.519Z,43.45
2023-07-27T00:09:54.204Z,43.33
2023-07-27T00:11:26.006Z,43.35
2023-07-27T00:12:57.727Z,43.19
2023-07-27T00:14:29.471Z,43.31
2023-07-27T00:16:01.010Z,43.10
2023-07-27T00:17:32.838Z,42.97
2023-07-27T00:19:04.741Z,43.18
2023-07-27T00:20:36.500Z,43.24
2023-07-27T00:22:08.116Z,43.24
2023-07-27T00:23:40.234Z,43.25
2023-07-27T00:25:11.838Z,43.23
2023-07-27T00:26:44.052Z,43.12
2023-07-27T00:28:15.726Z,43.11
2023-07-27T00:29:47.413Z,43.33
2023-07-27T00:31:19.166Z,43.11
2023-07-27T00:32:50.939Z,43.05
2023-07-27T00:34:22.619Z,43.36
2023-07-27T00:35:54.860Z,43.43
2023-07-27T00:37:26.525Z,43.62
2023-07-27T00:38:58.195Z,43.63
2023-07-27T00:40:29.986Z,43.78
2023-07-27T00:42:01.949Z,43.83
2023-07-27T00:43:33.924Z,43.83
2023-07-27T00:45:05.794Z,43.93
2023-07-27T00:46:38.240Z,43.84
2023-07-27T00:48:13.145Z,43.92
2023-07-27T00:49:45.293Z,44.00
2023-07-27T00:51:16.891Z,43.86
2023-07-27T00:52:48.598Z,43.70
2023-07-27T00:54:20.546Z,43.70
2023-07-27T00:55:52.797Z,43.79
2023-07-27T00:57:24.887Z,43.74
2023-07-27T00:58:56.590Z,43.82
2023-07-27T01:00:28.368Z,44.05
2023-07-27T01:01:59.979Z,44.09
2023-07-27T01:03:32.377Z,44.25
2023-07-27T01:05:04.175Z,44.22
2023-07-27T01:06:36.007Z,44.28
2023-07-27T01:08:08.097Z,44.21
2023-07-27T01:09:39.684Z,44.27
2023-07-27T01:11:14.190Z,44.50
2023-07-27T01:13:04.063Z,44.44
2023-07-27T01:14:42.581Z,44.46
2023-07-27T01:16:15.914Z,44.49
2023-07-27T01:17:50.306Z,44.48
2023-07-27T01:19:28.274Z,44.39
2023-07-27T01:21:02.830Z,44.56
2023-07-27T01:22:34.681Z,44.62
2023-07-27T01:24:24.611Z,44.85
2023-07-27T01:26:15.100Z,44.88
2023-07-27T01:27:57.986Z,44.96
2023-07-27T01:29:38.736Z,44.83
2023-07-27T01:31:10.935Z,45.02
2023-07-27T01:32:42.637Z,45.02
2023-07-27T01:34:33.988Z,44.88
2023-07-27T01:36:11.852Z,44.63
2023-07-27T01:37:43.498Z,44.84
2023-07-27T01:39:15.563Z,45.09
2023-07-27T01:40:47.585Z,45.00
2023-07-27T01:42:19.145Z,44.96
2023-07-27T01:43:50.837Z,45.22
2023-07-27T01:45:22.526Z,45.07
2023-07-27T01:46:54.403Z,45.22
2023-07-27T01:48:27.225Z,45.35
2023-07-27T01:49:58.884Z,45.48
2023-07-27T01:51:30.553Z,45.40
2023-07-27T01:53:02.421Z,45.46
2023-07-27T01:54:34.067Z,45.57
2023-07-27T01:56:06.578Z,45.60
2023-07-27T01:57:38.214Z,45.65
2023-07-27T01:59:10.222Z,45.77
2023-07-27T02:00:41.966Z,46.00
2023-07-27T02:02:14.662Z,46.25
2023-07-27T02:03:47.089Z,46.22
2023-07-27T02:05:18.805Z,45.97
2023-07-27T02:06:52.826Z,46.05
2023-07-27T02:08:25.088Z,46.17
2023-07-27T02:09:56.772Z,46.35
2023-07-27T02:11:28.397Z,46.40
2023-07-27T02:13:03.724Z,46.17
2023-07-27T02:14:42.142Z,46.14
2023-07-27T02:16:18.974Z,46.37
2023-07-27T02:17:55.389Z,46.24
2023-07-27T02:19:35.837Z,46.29
2023-07-27T02:21:07.987Z,46.04
2023-07-27T02:22:40.328Z,46.14
2023-07-27T02:24:12.133Z,46.44
2023-07-27T02:25:43.704Z,46.04
2023-07-27T02:27:15.501Z,46.23
2023-07-27T02:28:47.809Z,46.12
2023-07-27T02:30:19.482Z,46.20
2023-07-27T02:31:51.414Z,46.00
2023-07-27T02:33:23.029Z,45.94
2023-07-27T02:34:54.985Z,45.83
2023-07-27T02:36:26.942Z,45.86
2023-07-27T02:37:58.642Z,45.98
2023-07-27T02:39:30.458Z,46.22
2023-07-27T02:41:02.323Z,46.10
2023-07-27T02:42:33.981Z,46.22
2023-07-27T02:44:05.667Z,45.90
2023-07-27T02:45:37.594Z,45.92
2023-07-27T02:47:09.624Z,45.69
2023-07-27T02:48:41.245Z,45.70
2023-07-27T02:50:13.170Z,45.86
2023-07-27T02:51:44.752Z,45.99
2023-07-27T02:53:16.660Z,45.89
2023-07-27T02:54:48.657Z,46.10
2023-07-27T02:56:20.895Z,45.98
2023-07-27T02:57:52.548Z,45.89
2023-07-27T02:59:24.428Z,45.89
2023-07-27T03:00:57.534Z,45.91
2023-07-27T03:02:29.418Z,45.87
2023-07-27T03:04:01.110Z,45.86
2023-07-27T03:05:32.697Z,45.89
2023-07-27T03:07:04.548Z,45.81
2023-07-27T03:08:39.308Z,45.88
2023-07-27T03:10:11.078Z,45.88
2023-07-27T03:11:42.832Z,45.92
2023-07-27T03:13:14.474Z,45.77
2023-07-27T03:14:46.211Z,45.71
2023-07-27T03:16:17.960Z,45.78
2023-07-27T03:17:49.969Z,45.86
2023-07-27T03:19:21.656Z,45.94
2023-07-27T03:20:53.383Z,45.60
2023-07-27T03:22:25.066Z,45.55
2023-07-27T03:23:56.694Z,45.60
2023-07-27T03:25:33.036Z,45.75
2023-07-27T03:27:04.805Z,45.60
2023-07-27T03:28:36.377Z,45.55
2023-07-27T03:30:08.366Z,45.62
2023-07-27T03:31:40.070Z,45.56
2023-07-27T03:33:11.991Z,45.56
2023-07-27T03:34:43.661Z,45.58
2023-07-27T03:36:16.380Z,45.55
2023-07-27T03:37:48.258Z,45.71
2023-07-27T03:39:19.945Z,45.56
2023-07-27T03:40:51.747Z,45.48
2023-07-27T03:42:23.316Z,45.41
2023-07-27T03:43:55.006Z,45.71
2023-07-27T03:45:26.811Z,45.61
2023-07-27T03:46:58.581Z,45.65
2023-07-27T03:48:30.516Z,45.65
2023-07-27T03:50:02.433Z,45.87
2023-07-27T03:51:34.415Z,45.66
2023-07-27T03:53:06.697Z,45.63
2023-07-27T03:54:38.510Z,45.67
2023-07-27T03:56:10.248Z,45.71
2023-07-27T03:57:43.125Z,45.52
2023-07-27T03:59:14.819Z,45.56
2023-07-27T04:00:46.877Z,45.58
2023-07-27T04:02:18.562Z,45.51
2023-07-27T04:03:50.233Z,45.57
2023-07-27T04:05:22.722Z,45.41
2023-07-27T04:06:54.541Z,45.51
2023-07-27T04:08:26.796Z,45.49
2023-07-27T04:09:59.905Z,45.54
2023-07-27T04:11:35.047Z,45.35
2023-07-27T04:13:06.853Z,45.33
2023-07-27T04:14:38.918Z,45.51
2023-07-27T04:16:10.798Z,45.38
2023-07-27T04:17:43.110Z,45.49
2023-07-27T04:19:14.736Z,45.57
2023-07-27T04:20:46.697Z,45.73
2023-07-27T04:22:18.494Z,45.66
2023-07-27T04:23:51.135Z,45.53
2023-07-27T04:25:23.261Z,45.46
2023-07-27T04:26:54.950Z,45.53
2023-07-27T04:28:26.733Z,45.56
2023-07-27T04:29:58.581Z,45.46
2023-07-27T04:31:30.389Z,45.49
2023-07-27T04:33:02.255Z,45.26
2023-07-27T04:34:34.801Z,45.35
2023-07-27T04:36:06.421Z,45.48
2023-07-27T04:37:38.803Z,45.37
2023-07-27T04:39:10.647Z,45.06
2023-07-27T04:40:42.271Z,45.31
2023-07-27T04:42:14.000Z,45.32
2023-07-27T04:43:45.558Z,45.19
2023-07-27T04:45:17.209Z,45.13
2023-07-27T04:46:48.990Z,45.08
2023-07-27T04:48:20.680Z,45.19
2023-07-27T04:49:52.353Z,44.96
2023-07-27T04:51:24.281Z,45.11
2023-07-27T04:52:56.098Z,45.16
2023-07-27T04:54:27.801Z,45.18
2023-07-27T04:55:59.641Z,45.28
2023-07-27T04:57:31.565Z,45.18
2023-07-27T04:59:03.761Z,44.87
2023-07-27T05:00:35.841Z,45.19
2023-07-27T05:02:07.451Z,45.12
2023-07-27T05:03:39.001Z,44.84
2023-07-27T05:05:10.594Z,44.87
2023-07-27T05:06:42.388Z,44.78
2023-07-27T05:08:14.982Z,44.64
2023-07-27T05:09:46.880Z,44.46
2023-07-27T05:11:18.467Z,44.37
2023-07-27T05:12:50.329Z,44.62
2023-07-27T05:14:22.039Z,44.68
2023-07-27T05:15:53.700Z,44.65
2023-07-27T05:17:25.397Z,44.53
2023-07-27T05:18:59.036Z,44.63
2023-07-27T05:20:30.977Z,44.62
2023-07-27T05:22:03.016Z,44.69
2023-07-27T05:23:34.894Z,44.57
2023-07-27T05:25:07.166Z,44.53
2023-07-27T05:26:39.561Z,44.48
2023-07-27T05:28:12.069Z,44.55
2023-07-27T05:29:43.836Z,44.55
2023-07-27T05:31:15.780Z,44.40
2023-07-27T05:32:47.993Z,44.24
2023-07-27T05:34:19.962Z,44.24
2023-07-27T05:35:52.256Z,44.01
2023-07-27T05:37:24.710Z,43.96
2023-07-27T05:38:56.582Z,44.09
2023-07-27T05:40:28.263Z,44.05
2023-07-27T05:41:59.994Z,44.25
2023-07-27T05:43:31.687Z,43.99
2023-07-27T05:45:03.504Z,43.99
2023-07-27T05:46:35.438Z,43.83
2023-07-27T05:48:08.060Z,43.88
2023-07-27T05:49:39.827Z,43.77
2023-07-27T05:51:11.706Z,43.78
2023-07-27T05:52:44.739Z,43.83
2023-07-27T05:54:17.369Z,43.84
2023-07-27T05:55:49.358Z,43.85
2023-07-27T05:57:21.032Z,43.66
2023-07-27T05:58:52.910Z,43.56
2023-07-27T06:00:24.669Z,43.63
2023-07-27T06:01:56.527Z,43.60
2023-07-27T06:03:31.764Z,43.69
2023-07-27T06:05:04.833Z,43.53
2023-07-27T06:06:37.772Z,43.32
2023-07-27T06:08:09.930Z,43.42
2023-07-27T06:09:41.520Z,43.27
2023-07-27T06:11:13.435Z,43.14
2023-07-27T06:12:45.328Z,43.11
2023-07-27T06:14:17.087Z,42.84
2023-07-27T06:15:49.228Z,42.79
2023-07-27T06:17:20.962Z,42.75
2023-07-27T06:18:52.927Z,42.68
2023-07-27T06:20:24.743Z,42.67
2023-07-27T06:21:56.583Z,42.46
2023-07-27T06:23:29.601Z,42.35
2023-07-27T06:25:01.497Z,42.32
2023-07-27T06:27:57.973Z,42.14
2023-07-27T06:29:31.397Z,41.89
2023-07-27T06:31:03.520Z,41.56
2023-07-27T06:32:35.752Z,41.46
2023-07-27T06:34:07.864Z,41.14
2023-07-27T06:35:39.590Z,41.40
2023-07-27T06:37:11.396Z,41.22
2023-07-27T06:38:43.400Z,41.19
2023-07-27T06:40:15.122Z,41.08
2023-07-27T06:41:46.887Z,40.85
2023-07-27T06:43:18.557Z,40.69
2023-07-27T06:44:50.286Z,40.59
2023-07-27T06:46:22.072Z,40.54
2023-07-27T06:47:53.912Z,40.16
2023-07-27T06:49:25.940Z,40.07
2023-07-27T06:50:58.846Z,39.79
2023-07-27T06:52:31.532Z,39.53
2023-07-27T06:54:03.942Z,39.38
2023-07-27T06:55:36.558Z,39.14
2023-07-27T06:57:13.155Z,39.09
2023-07-27T06:58:44.858Z,38.84
2023-07-27T07:00:16.978Z,38.89
2023-07-27T07:01:49.008Z,38.78
2023-07-27T07:03:20.653Z,38.82
2023-07-27T07:04:52.399Z,38.67
2023-07-27T07:06:24.021Z,38.37
2023-07-27T07:07:55.790Z,38.49
2023-07-27T07:09:27.559Z,38.40
2023-07-27T07:11:00.373Z,37.97
2023-07-27T07:12:32.318Z,38.04
2023-07-27T07:14:04.239Z,37.75
2023-07-27T07:15:35.965Z,37.40
2023-07-27T07:17:08.243Z,37.71
2023-07-27T07:18:40.427Z,37.45
2023-07-27T07:20:12.618Z,37.42
2023-07-27T07:21:44.997Z,37.31
2023-07-27T07:23:17.240Z,37.30
2023-07-27T07:24:49.077Z,37.26
2023-07-27T07:26:21.579Z,37.06
2023-07-27T07:27:53.602Z,36.84
2023-07-27T07:29:25.812Z,36.92
2023-07-27T07:30:58.068Z,36.91
2023-07-27T07:32:30.182Z,36.59
2023-07-27T07:34:02.777Z,36.38
2023-07-27T07:35:39.878Z,36.38
2023-07-27T07:37:11.845Z,36.17
2023-07-27T07:38:43.797Z,36.06
2023-07-27T07:40:18.234Z,35.88
2023-07-27T07:41:50.161Z,36.10
2023-07-27T07:43:21.869Z,35.83
2023-07-27T07:44:54.036Z,35.38
2023-07-27T07:46:26.264Z,35.52
2023-07-27T07:47:58.483Z,35.49
2023-07-27T07:49:33.993Z,34.95
2023-07-27T07:51:11.956Z,35.03
2023-07-27T07:52:43.597Z,34.77
2023-07-27T07:54:15.566Z,34.67
2023-07-27T07:55:47.434Z,34.58
2023-07-27T07:57:21.764Z,34.71
2023-07-27T07:58:53.398Z,34.70
2023-07-27T08:00:25.509Z,34.50
2023-07-27T08:01:57.504Z,34.13
2023-07-27T08:03:29.287Z,33.98
2023-07-27T08:05:01.170Z,33.97
2023-07-27T08:06:34.279Z,33.92
2023-07-27T08:08:06.366Z,34.03
2023-07-27T08:09:38.273Z,34.05
2023-07-27T08:11:11.089Z,33.93
2023-07-27T08:12:45.110Z,33.84
2023-07-27T08:14:16.896Z,33.34
2023-07-27T08:15:54.402Z,33.20
2023-07-27T08:17:28.452Z,33.25
2023-07-27T08:19:00.318Z,32.97
2023-07-27T08:20:32.340Z,33.08
2023-07-27T08:22:06.096Z,33.19
2023-07-27T08:23:38.206Z,32.84
2023-07-27T08:25:20.741Z,32.90
2023-07-27T08:26:53.774Z,33.06
2023-07-27T08:28:25.546Z,32.80
2023-07-27T08:29:57.370Z,32.78
2023-07-27T08:31:29.267Z,32.73
2023-07-27T08:33:00.950Z,32.80
2023-07-27T08:34:32.910Z,32.46
2023-07-27T08:36:05.679Z,32.52
2023-07-27T08:37:38.016Z,32.77
2023-07-27T08:39:09.781Z,32.68
2023-07-27T08:40:41.686Z,32.74
2023-07-27T08:42:14.427Z,32.64
2023-07-27T08:43:46.834Z,32.31
2023-07-27T08:45:21.379Z,32.64
2023-07-27T08:47:05.623Z,32.53
2023-07-27T08:48:37.476Z,32.14
2023-07-27T08:50:09.616Z,31.99
2023-07-27T08:51:43.526Z,31.89
2023-07-27T08:53:15.491Z,32.35
2023-07-27T08:54:48.569Z,32.26
2023-07-27T08:56:20.912Z,31.97
2023-07-27T08:57:52.489Z,31.98
2023-07-27T08:59:25.649Z,31.81
2023-07-27T09:00:57.639Z,31.77
2023-07-27T09:02:29.375Z,31.58
2023-07-27T09:04:02.129Z,31.64
2023-07-27T09:05:46.846Z,31.37
2023-07-27T09:07:20.178Z,31.47
2023-07-27T09:08:51.994Z,31.41
2023-07-27T09:10:23.809Z,31.32
2023-07-27T09:11:55.987Z,30.81
2023-07-27T09:13:31.733Z,30.98
2023-07-27T09:15:16.780Z,30.78
2023-07-27T09:16:49.324Z,31.10
2023-07-27T09:18:21.140Z,30.82
2023-07-27T09:19:55.157Z,30.96
2023-07-27T09:21:27.746Z,31.04
2023-07-27T09:22:59.726Z,31.11
2023-07-27T09:24:32.570Z,31.01
2023-07-27T09:26:04.416Z,30.67
2023-07-27T09:27:44.170Z,30.91
2023-07-27T09:29:16.657Z,30.79
2023-07-27T09:30:48.578Z,30.46
2023-07-27T09:32:20.312Z,30.51
2023-07-27T09:33:52.405Z,30.58
2023-07-27T09:35:24.570Z,30.34
2023-07-27T09:36:57.354Z,30.25
2023-07-27T09:38:29.397Z,30.42
2023-07-27T09:40:09.462Z,30.32
2023-07-27T09:41:43.525Z,30.25
2023-07-27T09:43:15.148Z,30.24
2023-07-27T09:44:48.467Z,30.09
2023-07-27T09:46:23.929Z,30.33
2023-07-27T09:47:55.681Z,30.34
2023-07-27T09:49:27.464Z,30.04
2023-07-27T09:50:59.990Z,29.73
2023-07-27T09:52:31.893Z,29.64
2023-07-27T09:54:03.736Z,29.54
2023-07-27T09:55:35.723Z,29.53
2023-07-27T09:57:08.061Z,29.42
2023-07-27T09:58:41.080Z,29.29
2023-07-27T10:00:13.361Z,29.31
2023-07-27T10:01:45.139Z,29.27
2023-07-27T10:03:17.209Z,29.08
2023-07-27T10:04:52.127Z,29.02
2023-07-27T10:06:24.349Z,29.10
2023-07-27T10:07:56.279Z,29.19
2023-07-27T10:09:28.342Z,28.98
2023-07-27T10:11:00.783Z,28.93
2023-07-27T10:12:32.882Z,28.68
2023-07-27T10:14:20.199Z,28.82
2023-07-27T10:15:56.147Z,28.32
2023-07-27T10:17:41.637Z,28.65
2023-07-27T10:19:13.726Z,28.75
2023-07-27T10:20:45.689Z,28.64
2023-07-27T10:22:19.162Z,28.70
2023-07-27T10:24:00.556Z,28.38
2023-07-27T10:25:50.753Z,28.64
2023-07-27T10:27:22.505Z,28.37
2023-07-27T10:28:54.424Z,28.32
2023-07-27T10:30:26.790Z,28.12
2023-07-27T10:32:05.349Z,28.18
2023-07-27T10:33:37.546Z,28.10
2023-07-27T10:35:10.141Z,27.89
2023-07-27T10:37:01.153Z,27.90
2023-07-27T10:38:33.993Z,27.79
2023-07-27T10:40:06.682Z,27.49
2023-07-27T10:41:38.667Z,27.55
2023-07-27T10:43:10.855Z,27.49
2023-07-27T10:44:53.932Z,27.46
2023-07-27T10:46:31.833Z,27.75
2023-07-27T10:48:05.640Z,27.81
2023-07-27T10:49:41.827Z,27.25
2023-07-27T10:51:14.346Z,27.41
2023-07-27T10:52:46.113Z,26.98
2023-07-27T10:54:18.012Z,27.19
2023-07-27T10:55:49.807Z,26.80
2023-07-27T10:57:22.360Z,26.76
2023-07-27T10:58:57.930Z,27.02
2023-07-27T11:00:36.167Z,26.81
2023-07-27T11:02:12.186Z,26.48
2023-07-27T11:03:44.057Z,26.71
2023-07-27T11:05:16.201Z,26.68
2023-07-27T11:06:48.740Z,26.60
2023-07-27T11:08:20.824Z,26.64
2023-07-27T11:09:52.942Z,26.53
2023-07-27T11:11:28.844Z,26.42
2023-07-27T11:13:00.740Z,26.54
2023-07-27T11:14:32.692Z,26.26
2023-07-27T11:16:04.454Z,26.39
2023-07-27T11:17:36.547Z,26.49
2023-07-27T11:19:09.334Z,26.14
2023-07-27T11:20:41.961Z,26.28
2023-07-27T11:22:14.953Z,26.18
2023-07-27T11:23:47.679Z,26.23
2023-07-27T11:25:20.179Z,26.31
2023-07-27T11:26:52.348Z,26.24
2023-07-27T11:28:24.839Z,26.04
2023-07-27T11:30:00.961Z,26.19
2023-07-27T11:31:32.874Z,26.00
2023-07-27T11:33:05.931Z,26.18
2023-07-27T11:34:38.731Z,26.27
2023-07-27T11:36:12.620Z,26.18
2023-07-27T11:37:45.118Z,26.29
2023-07-27T11:39:17.935Z,26.21
2023-07-27T11:40:50.298Z,26.07
2023-07-27T11:42:29.004Z,26.14
2023-07-27T11:44:01.632Z,26.24
2023-07-27T11:45:33.993Z,26.04
2023-07-27T11:47:06.227Z,26.16
2023-07-27T11:48:38.583Z,26.16
2023-07-27T11:50:11.039Z,26.08
2023-07-27T11:51:43.423Z,26.19
2023-07-27T11:53:26.209Z,25.89
2023-07-27T11:55:05.766Z,26.09
2023-07-27T11:56:38.162Z,26.17
2023-07-27T11:58:10.732Z,25.65
2023-07-27T11:59:42.546Z,25.56
2023-07-27T12:01:15.050Z,25.84
2023-07-27T12:02:50.363Z,25.80
2023-07-27T12:04:22.677Z,25.76
2023-07-27T12:05:55.803Z,25.37
2023-07-27T12:08:07.984Z,25.64
2023-07-27T12:09:28.910Z,25.59
2023-07-27T12:11:03.669Z,25.61
2023-07-27T12:14:10.854Z,25.59
2023-07-27T12:16:18.541Z,25.30
2023-07-27T12:17:36.982Z,25.53
2023-07-27T12:19:09.419Z,25.40
2023-07-27T12:28:42.023Z,25.09
2023-07-27T12:33:27.417Z,25.42
2023-07-27T12:36:34.339Z,25.08
2023-07-27T12:39:41.153Z,25.01
2023-07-27T12:41:12.968Z,25.32
2023-07-27T12:42:45.478Z,24.77
2023-07-27T12:44:17.502Z,24.85
2023-07-27T12:45:49.937Z,25.25
2023-07-27T12:47:21.825Z,24.81
2023-07-27T12:48:54.019Z,24.99
2023-07-27T12:50:26.608Z,24.56
2023-07-27T12:51:58.390Z,24.59
2023-07-27T12:53:30.361Z,24.65
2023-07-27T12:55:03.765Z,24.71
2023-07-27T12:56:36.428Z,24.42
2023-07-27T12:58:08.174Z,24.39
2023-07-27T12:59:41.809Z,24.79
2023-07-27T13:01:13.587Z,24.64
2023-07-27T13:02:45.450Z,24.24
2023-07-27T13:04:17.357Z,24.29
2023-07-27T13:05:49.070Z,24.63
2023-07-27T13:07:21.401Z,24.28
2023-07-27T13:08:53.352Z,24.32
2023-07-27T13:10:25.453Z,24.67
2023-07-27T13:11:57.420Z,24.57
2023-07-27T13:13:29.614Z,24.32
2023-07-27T13:15:03.658Z,24.30
2023-07-27T13:16:35.604Z,24.62
2023-07-27T13:18:07.487Z,24.35
2023-07-27T13:19:39.375Z,24.41
2023-07-27T13:21:11.307Z,24.21
2023-07-27T13:22:43.322Z,24.13
2023-07-27T13:24:15.065Z,24.27
2023-07-27T13:25:47.474Z,24.75
2023-07-27T13:27:19.741Z,24.44
2023-07-27T13:28:51.371Z,24.38
2023-07-27T13:30:23.096Z,24.82
2023-07-27T13:31:55.041Z,24.75
2023-07-27T13:33:27.057Z,24.66
2023-07-27T13:34:59.566Z,24.39
2023-07-27T13:36:34.160Z,24.37
2023-07-27T13:38:06.294Z,24.09
2023-07-27T13:39:39.563Z,24.04
2023-07-27T13:41:11.222Z,24.48
2023-07-27T13:42:42.930Z,24.00
2023-07-27T13:44:14.549Z,24.13
2023-07-27T13:45:47.326Z,24.40
2023-07-27T13:47:19.127Z,24.39
2023-07-27T13:48:50.744Z,23.99
2023-07-27T13:50:22.691Z,24.04
2023-07-27T13:51:54.613Z,24.22
2023-07-27T13:53:26.491Z,24.25
2023-07-27T13:54:58.478Z,24.09
2023-07-27T13:56:30.931Z,24.33
2023-07-27T13:58:02.839Z,24.21
2023-07-27T13:59:34.565Z,24.19
2023-07-27T14:01:06.221Z,24.10
2023-07-27T14:02:38.055Z,24.08
2023-07-27T14:04:10.117Z,24.01
2023-07-27T14:05:41.740Z,23.85
2023-07-27T14:07:13.693Z,23.93
2023-07-27T14:08:45.526Z,23.98
2023-07-27T14:10:17.469Z,24.12
2023-07-27T14:11:49.835Z,24.04
2023-07-27T14:13:21.735Z,23.88
2023-07-27T14:14:53.663Z,23.90
2023-07-27T14:16:25.681Z,23.81
2023-07-27T14:17:57.838Z,23.83
2023-07-27T14:19:29.710Z,24.17
2023-07-27T14:21:01.459Z,23.96
2023-07-27T14:22:36.595Z,24.30
2023-07-27T14:24:08.542Z,24.17
2023-07-27T14:25:40.267Z,24.06
2023-07-27T14:27:12.284Z,24.08
2023-07-27T14:28:44.143Z,24.00
2023-07-27T14:30:15.835Z,23.84
2023-07-27T14:31:47.652Z,23.95
2023-07-27T14:33:19.535Z,24.15
2023-07-27T14:34:51.294Z,24.09
2023-07-27T14:36:23.393Z,24.25
2023-07-27T14:37:55.150Z,24.29
2023-07-27T14:39:48.408Z,24.34
2023-07-27T14:41:18.705Z,24.32
2023-07-27T14:42:50.995Z,24.14
2023-07-27T14:44:22.612Z,24.11
2023-07-27T14:45:54.472Z,24.31
2023-07-27T14:47:26.641Z,23.86
2023-07-27T14:48:58.266Z,24.07
2023-07-27T14:52:05.343Z,23.85
2023-07-27T14:53:37.055Z,23.76
2023-07-27T14:55:09.383Z,23.97
2023-07-27T14:56:41.718Z,24.12
2023-07-27T14:59:57.852Z,24.32
2023-07-27T15:03:21.212Z,23.94
2023-07-27T15:04:54.039Z,23.95
2023-07-27T15:06:26.679Z,24.28
2023-07-27T15:07:58.459Z,24.25
2023-07-27T15:09:30.759Z,23.91
2023-07-27T15:12:37.136Z,23.80
2023-07-27T15:14:08.953Z,23.73
2023-07-27T15:15:41.149Z,23.89
2023-07-27T15:17:13.030Z,24.05
2023-07-27T15:18:44.868Z,24.13
2023-07-27T15:20:16.985Z,24.14
2023-07-27T15:21:49.118Z,23.99
2023-07-27T15:23:21.496Z,23.98
2023-07-27T15:24:53.339Z,23.99
2023-07-27T15:26:25.495Z,24.06
2023-07-27T15:27:58.235Z,24.20
2023-07-27T15:29:29.913Z,24.17
2023-07-27T15:31:02.042Z,24.26
2023-07-27T15:32:34.176Z,24.23
2023-07-27T15:34:06.498Z,24.30
2023-07-27T15:35:39.433Z,24.23
2023-07-27T15:37:11.434Z,24.33
2023-07-27T15:38:44.999Z,24.48
2023-07-27T15:40:19.006Z,24.32
2023-07-27T15:41:51.303Z,24.31
2023-07-27T15:43:22.884Z,24.34
2023-07-27T15:44:54.823Z,24.48
2023-07-27T15:46:27.126Z,24.52
2023-07-27T15:47:59.193Z,24.25
2023-07-27T15:49:31.375Z,24.48
2023-07-27T15:51:08.531Z,24.41
2023-07-27T15:52:42.031Z,24.57
2023-07-27T15:54:14.452Z,24.40
2023-07-27T15:55:46.797Z,24.50
2023-07-27T15:57:18.962Z,24.67
2023-07-27T15:58:51.127Z,24.46
2023-07-27T16:00:22.829Z,24.64
2023-07-27T16:01:54.494Z,24.57
2023-07-27T16:03:26.408Z,24.66
2023-07-27T16:04:58.169Z,24.50
2023-07-27T16:06:29.815Z,24.55
2023-07-27T16:08:01.596Z,24.49
2023-07-27T16:09:33.217Z,24.53
2023-07-27T16:11:09.904Z,24.54
2023-07-27T16:12:41.842Z,24.40
2023-07-27T16:14:13.651Z,24.70
2023-07-27T16:15:48.586Z,24.86
2023-07-27T16:17:23.250Z,25.00
2023-07-27T16:18:55.024Z,25.25
2023-07-27T16:20:26.583Z,25.09
2023-07-27T16:22:00.771Z,25.05
2023-07-27T16:23:34.078Z,25.07
2023-07-27T16:25:06.261Z,24.96
2023-07-27T16:26:37.987Z,25.07
2023-07-27T16:28:09.772Z,25.19
2023-07-27T16:29:41.825Z,24.99
2023-07-27T16:31:14.492Z,25.08
2023-07-27T16:32:47.013Z,25.13
2023-07-27T16:34:19.745Z,25.22
2023-07-27T16:35:51.674Z,25.11
2023-07-27T16:37:23.584Z,25.26
2023-07-27T16:38:55.252Z,25.26
2023-07-27T16:40:27.174Z,25.58
2023-07-27T16:42:00.958Z,25.41
2023-07-27T16:43:32.913Z,25.52
2023-07-27T16:45:04.848Z,25.39
2023-07-27T16:46:36.807Z,25.79
2023-07-27T16:48:08.844Z,25.95
2023-07-27T16:49:40.554Z,25.88
2023-07-27T16:51:12.153Z,26.02
2023-07-27T16:52:44.136Z,25.59
2023-07-27T16:54:15.876Z,26.18
2023-07-27T16:55:47.631Z,26.16
2023-07-27T16:57:19.588Z,26.08
2023-07-27T16:58:52.134Z,26.08
2023-07-27T17:00:24.434Z,26.32
2023-07-27T17:01:56.227Z,26.46
2023-07-27T17:03:28.682Z,26.29
2023-07-27T17:05:00.495Z,26.08
2023-07-27T17:06:32.763Z,26.27
2023-07-27T17:08:04.950Z,25.91
2023-07-27T17:09:37.982Z,26.02
2023-07-27T17:11:09.687Z,26.17
2023-07-27T17:12:41.667Z,26.17
2023-07-27T17:14:13.286Z,26.29
2023-07-27T17:15:44.985Z,26.45
2023-07-27T17:17:16.900Z,26.63
2023-07-27T17:18:53.190Z,26.83
2023-07-27T17:20:25.532Z,26.63
2023-07-27T17:21:57.692Z,26.57
2023-07-27T17:23:29.577Z,26.75
2023-07-27T17:25:01.954Z,26.76
2023-07-27T17:26:34.047Z,26.93
2023-07-27T17:28:06.743Z,26.89
2023-07-27T17:29:38.526Z,27.00
2023-07-27T17:31:10.490Z,26.94
2023-07-27T17:32:42.987Z,27.05
2023-07-27T17:34:15.277Z,27.08
2023-07-27T17:35:47.481Z,27.11
2023-07-27T17:37:19.362Z,27.47
2023-07-27T17:38:51.444Z,27.47
2023-07-27T17:40:23.728Z,27.37
2023-07-27T17:41:55.834Z,27.71
2023-07-27T17:43:27.853Z,27.53
2023-07-27T17:44:59.482Z,27.65
2023-07-27T17:46:32.062Z,27.46
2023-07-27T17:48:03.865Z,27.52
2023-07-27T17:49:35.595Z,27.76
2023-07-27T17:51:08.316Z,27.58
2023-07-27T17:52:39.908Z,27.62
2023-07-27T17:54:11.436Z,27.70
2023-07-27T17:55:43.480Z,27.63
2023-07-27T17:57:15.442Z,27.89
2023-07-27T17:58:47.084Z,27.90
2023-07-27T18:00:18.952Z,27.69
2023-07-27T18:01:51.020Z,28.00
2023-07-27T18:03:23.376Z,28.17
2023-07-27T18:04:55.436Z,28.12
2023-07-27T18:06:27.153Z,28.11
2023-07-27T18:07:59.204Z,28.14
2023-07-27T18:09:30.962Z,28.19
2023-07-27T18:11:08.723Z,28.28
2023-07-27T18:12:40.440Z,28.37
2023-07-27T18:14:12.343Z,28.25
2023-07-27T18:15:44.589Z,28.35
2023-07-27T18:17:16.213Z,28.30
2023-07-27T18:18:47.942Z,28.36
2023-07-27T18:20:20.119Z,28.41
2023-07-27T18:21:51.928Z,28.43
2023-07-27T18:23:24.378Z,28.48
2023-07-27T18:24:56.453Z,28.65
2023-07-27T18:26:28.905Z,28.85
2023-07-27T18:28:00.735Z,28.97
2023-07-27T18:29:32.519Z,28.79
2023-07-27T18:31:05.040Z,28.81
2023-07-27T18:32:39.984Z,28.99
2023-07-27T18:34:11.952Z,28.96
2023-07-27T18:35:43.610Z,28.95
2023-07-27T18:37:15.568Z,29.02
2023-07-27T18:38:47.306Z,28.94
2023-07-27T18:40:19.312Z,29.05
2023-07-27T18:41:51.986Z,29.06
2023-07-27T18:43:23.774Z,29.14
2023-07-27T18:44:56.200Z,29.15
2023-07-27T18:46:29.200Z,29.05
2023-07-27T18:48:04.196Z,29.22
2023-07-27T18:49:36.168Z,29.23
2023-07-27T18:51:09.313Z,29.27
2023-07-27T18:52:43.719Z,29.32
2023-07-27T18:54:15.646Z,29.45
2023-07-27T18:55:50.329Z,29.51
2023-07-27T18:57:22.439Z,29.56
2023-07-27T18:58:54.181Z,29.55
2023-07-27T19:00:26.616Z,29.70
2023-07-27T19:01:58.535Z,29.83
2023-07-27T19:03:30.425Z,29.81
2023-07-27T19:05:02.331Z,29.92
2023-07-27T19:06:34.142Z,29.93
2023-07-27T19:08:06.160Z,30.03
2023-07-27T19:09:37.925Z,30.00
2023-07-27T19:11:09.689Z,30.13
2023-07-27T19:12:41.315Z,30.20
2023-07-27T19:14:13.437Z,30.05
2023-07-27T19:15:48.950Z,30.44
2023-07-27T19:17:22.966Z,30.42
2023-07-27T19:18:55.000Z,30.34
2023-07-27T19:20:26.800Z,30.68
2023-07-27T19:21:58.603Z,30.69
2023-07-27T19:23:30.555Z,30.72
2023-07-27T19:25:02.473Z,30.95
2023-07-27T19:26:35.482Z,30.70
2023-07-27T19:28:10.845Z,31.07
2023-07-27T19:29:43.155Z,31.00
2023-07-27T19:31:21.802Z,30.97
2023-07-27T19:32:54.021Z,30.98
2023-07-27T19:34:26.207Z,31.12
2023-07-27T19:35:58.025Z,30.99
2023-07-27T19:37:29.942Z,31.22
2023-07-27T19:39:03.932Z,31.18
2023-07-27T19:40:36.116Z,31.28
2023-07-27T19:42:10.894Z,31.27
2023-07-27T19:43:42.718Z,31.29
2023-07-27T19:45:17.900Z,31.28
2023-07-27T19:46:50.504Z,31.47
2023-07-27T19:48:22.266Z,31.23
2023-07-27T19:50:04.595Z,31.27
2023-07-27T19:51:37.463Z,31.55
2023-07-27T19:53:09.339Z,31.60
2023-07-27T19:54:41.456Z,31.52
2023-07-27T19:56:15.223Z,31.85
2023-07-27T19:57:46.919Z,31.82
2023-07-27T19:59:18.946Z,31.98
2023-07-27T20:00:50.783Z,32.08
2023-07-27T20:02:22.924Z,32.12
2023-07-27T20:03:54.752Z,32.00
2023-07-27T20:05:27.021Z,31.98
2023-07-27T20:06:58.717Z,31.98
2023-07-27T20:08:45.094Z,31.89
2023-07-27T20:10:18.714Z,31.93
2023-07-27T20:11:50.582Z,31.99
2023-07-27T20:13:22.303Z,32.04
2023-07-27T20:14:54.168Z,32.06
2023-07-27T20:16:25.952Z,32.08
2023-07-27T20:17:57.968Z,32.14
2023-07-27T20:19:29.831Z,32.15